sensor_id;sensor_type;location;lat;lon;timestamp;pressure;altitude;pressure_sealevel;temperature;humidity
85764;BME280;76207;39.772;2.706;2024-02-16T00:00:26;101394.83;;;12.85;53.64
85764;BME280;76207;39.772;2.706;2024-02-16T00:02:51;101400.30;;;12.84;53.64
85764;BME280;76207;39.772;2.706;2024-02-16T00:05:18;101401.66;;;12.84;53.66
85764;BME280;76207;39.772;2.706;2024-02-16T00:07:44;101400.28;;;12.84;53.92
85764;BME280;76207;39.772;2.706;2024-02-16T00:10:10;101395.65;;;12.81;54.04
85764;BME280;76207;39.772;2.706;2024-02-16T00:12:37;101392.96;;;12.76;53.86
85764;BME280;76207;39.772;2.706;2024-02-16T00:15:05;101393.48;;;12.70;54.13
85764;BME280;76207;39.772;2.706;2024-02-16T00:17:31;101394.45;;;12.65;53.83
85764;BME280;76207;39.772;2.706;2024-02-16T00:19:57;101398.52;;;12.64;53.97
85764;BME280;76207;39.772;2.706;2024-02-16T00:22:23;101401.28;;;12.64;54.08
85764;BME280;76207;39.772;2.706;2024-02-16T00:24:49;101396.73;;;12.66;53.96
85764;BME280;76207;39.772;2.706;2024-02-16T00:27:15;101393.48;;;12.70;53.10
85764;BME280;76207;39.772;2.706;2024-02-16T00:29:41;101394.16;;;12.73;53.56
85764;BME280;76207;39.772;2.706;2024-02-16T00:32:07;101400.13;;;12.75;53.84
85764;BME280;76207;39.772;2.706;2024-02-16T00:34:34;101399.05;;;12.74;53.91
85764;BME280;76207;39.772;2.706;2024-02-16T00:37:00;101395.02;;;12.73;54.02
85764;BME280;76207;39.772;2.706;2024-02-16T00:39:25;101391.79;;;12.73;54.21
85764;BME280;76207;39.772;2.706;2024-02-16T00:41:51;101387.52;;;12.74;54.24
85764;BME280;76207;39.772;2.706;2024-02-16T00:44:17;101384.79;;;12.74;54.39
85764;BME280;76207;39.772;2.706;2024-02-16T00:46:46;101382.27;;;12.75;54.11
85764;BME280;76207;39.772;2.706;2024-02-16T00:49:12;101385.02;;;12.75;54.21
85764;BME280;76207;39.772;2.706;2024-02-16T00:51:38;101380.80;;;12.76;54.39
85764;BME280;76207;39.772;2.706;2024-02-16T00:54:04;101377.83;;;12.75;54.20
85764;BME280;76207;39.772;2.706;2024-02-16T00:56:31;101378.48;;;12.75;54.59
85764;BME280;76207;39.772;2.706;2024-02-16T00:58:57;101375.15;;;12.74;54.74
85764;BME280;76207;39.772;2.706;2024-02-16T01:01:23;101375.56;;;12.71;54.80
85764;BME280;76207;39.772;2.706;2024-02-16T01:03:51;101373.11;;;12.71;54.75
85764;BME280;76207;39.772;2.706;2024-02-16T01:06:17;101368.23;;;12.70;54.86
85764;BME280;76207;39.772;2.706;2024-02-16T01:08:43;101368.52;;;12.68;54.86
85764;BME280;76207;39.772;2.706;2024-02-16T01:11:09;101370.67;;;12.67;54.92
85764;BME280;76207;39.772;2.706;2024-02-16T01:13:35;101378.50;;;12.62;55.49
85764;BME280;76207;39.772;2.706;2024-02-16T01:16:00;101378.52;;;12.56;55.45
85764;BME280;76207;39.772;2.706;2024-02-16T01:18:28;101381.02;;;12.51;55.32
85764;BME280;76207;39.772;2.706;2024-02-16T01:20:54;101376.93;;;12.46;55.58
85764;BME280;76207;39.772;2.706;2024-02-16T01:23:20;101382.79;;;12.43;55.55
85764;BME280;76207;39.772;2.706;2024-02-16T01:25:46;101386.38;;;12.39;55.62
85764;BME280;76207;39.772;2.706;2024-02-16T01:28:12;101380.35;;;12.36;56.15
85764;BME280;76207;39.772;2.706;2024-02-16T01:30:39;101382.01;;;12.29;56.10
85764;BME280;76207;39.772;2.706;2024-02-16T01:33:05;101380.05;;;12.27;56.21
85764;BME280;76207;39.772;2.706;2024-02-16T01:35:34;101376.73;;;12.26;56.45
85764;BME280;76207;39.772;2.706;2024-02-16T01:38:00;101378.04;;;12.25;56.61
85764;BME280;76207;39.772;2.706;2024-02-16T01:40:26;101381.61;;;12.24;56.39
85764;BME280;76207;39.772;2.706;2024-02-16T01:42:53;101379.72;;;12.25;56.58
85764;BME280;76207;39.772;2.706;2024-02-16T01:45:19;101382.56;;;12.23;56.43
85764;BME280;76207;39.772;2.706;2024-02-16T01:47:46;101381.11;;;12.22;56.99
85764;BME280;76207;39.772;2.706;2024-02-16T01:50:14;101378.95;;;12.20;57.23
85764;BME280;76207;39.772;2.706;2024-02-16T01:52:40;101371.14;;;12.18;56.75
85764;BME280;76207;39.772;2.706;2024-02-16T01:55:06;101368.98;;;12.16;57.19
85764;BME280;76207;39.772;2.706;2024-02-16T01:57:46;101367.82;;;12.14;57.42
85764;BME280;76207;39.772;2.706;2024-02-16T02:00:13;101354.48;;;12.14;57.51
85764;BME280;76207;39.772;2.706;2024-02-16T02:02:44;101351.71;;;12.17;57.32
85764;BME280;76207;39.772;2.706;2024-02-16T02:05:11;101354.49;;;12.18;57.47
85764;BME280;76207;39.772;2.706;2024-02-16T02:07:40;101354.31;;;12.18;57.41
85764;BME280;76207;39.772;2.706;2024-02-16T02:10:06;101358.83;;;12.19;57.47
85764;BME280;76207;39.772;2.706;2024-02-16T02:12:32;101355.42;;;12.19;57.39
85764;BME280;76207;39.772;2.706;2024-02-16T02:14:57;101358.93;;;12.21;57.34
85764;BME280;76207;39.772;2.706;2024-02-16T02:17:23;101348.33;;;12.18;57.53
85764;BME280;76207;39.772;2.706;2024-02-16T02:19:50;101353.62;;;12.14;57.74
85764;BME280;76207;39.772;2.706;2024-02-16T02:22:16;101355.23;;;12.10;57.93
85764;BME280;76207;39.772;2.706;2024-02-16T02:24:43;101350.97;;;12.04;58.16
85764;BME280;76207;39.772;2.706;2024-02-16T02:27:10;101346.19;;;12.01;58.10
85764;BME280;76207;39.772;2.706;2024-02-16T02:29:36;101345.44;;;12.00;58.21
85764;BME280;76207;39.772;2.706;2024-02-16T02:32:01;101345.23;;;11.99;58.17
85764;BME280;76207;39.772;2.706;2024-02-16T02:34:27;101343.77;;;11.98;58.26
85764;BME280;76207;39.772;2.706;2024-02-16T02:36:52;101337.50;;;11.96;58.90
85764;BME280;76207;39.772;2.706;2024-02-16T02:39:18;101337.45;;;11.95;58.54
85764;BME280;76207;39.772;2.706;2024-02-16T02:41:44;101335.45;;;11.93;58.77
85764;BME280;76207;39.772;2.706;2024-02-16T02:44:10;101330.23;;;11.92;58.89
85764;BME280;76207;39.772;2.706;2024-02-16T02:46:36;101335.39;;;11.92;59.01
85764;BME280;76207;39.772;2.706;2024-02-16T02:49:02;101336.55;;;11.94;59.07
85764;BME280;76207;39.772;2.706;2024-02-16T02:51:29;101334.21;;;11.92;59.13
85764;BME280;76207;39.772;2.706;2024-02-16T02:53:55;101335.98;;;11.93;58.89
85764;BME280;76207;39.772;2.706;2024-02-16T02:56:20;101333.81;;;11.91;59.01
85764;BME280;76207;39.772;2.706;2024-02-16T02:58:46;101327.56;;;11.90;59.29
85764;BME280;76207;39.772;2.706;2024-02-16T03:01:12;101332.23;;;11.91;59.19
85764;BME280;76207;39.772;2.706;2024-02-16T03:03:38;101333.30;;;11.91;59.17
85764;BME280;76207;39.772;2.706;2024-02-16T03:06:04;101332.58;;;11.90;59.34
85764;BME280;76207;39.772;2.706;2024-02-16T03:08:30;101327.77;;;11.90;59.40
85764;BME280;76207;39.772;2.706;2024-02-16T03:10:56;101316.32;;;11.88;59.29
85764;BME280;76207;39.772;2.706;2024-02-16T03:13:22;101306.40;;;11.85;59.54
85764;BME280;76207;39.772;2.706;2024-02-16T03:15:48;101314.00;;;11.83;59.60
85764;BME280;76207;39.772;2.706;2024-02-16T03:18:13;101320.16;;;11.78;59.76
85764;BME280;76207;39.772;2.706;2024-02-16T03:20:40;101308.34;;;11.75;59.88
85764;BME280;76207;39.772;2.706;2024-02-16T03:23:05;101300.64;;;11.75;60.09
85764;BME280;76207;39.772;2.706;2024-02-16T03:25:31;101302.30;;;11.74;60.31
85764;BME280;76207;39.772;2.706;2024-02-16T03:27:56;101298.10;;;11.76;60.33
85764;BME280;76207;39.772;2.706;2024-02-16T03:30:22;101299.62;;;11.78;59.69
85764;BME280;76207;39.772;2.706;2024-02-16T03:32:48;101300.52;;;11.79;59.96
85764;BME280;76207;39.772;2.706;2024-02-16T03:35:14;101297.84;;;11.77;59.99
85764;BME280;76207;39.772;2.706;2024-02-16T03:37:40;101299.64;;;11.76;59.67
85764;BME280;76207;39.772;2.706;2024-02-16T03:40:07;101302.22;;;11.76;60.30
85764;BME280;76207;39.772;2.706;2024-02-16T03:42:35;101296.49;;;11.74;60.07
85764;BME280;76207;39.772;2.706;2024-02-16T03:45:02;101298.77;;;11.69;60.43
85764;BME280;76207;39.772;2.706;2024-02-16T03:47:28;101298.17;;;11.58;60.92
85764;BME280;76207;39.772;2.706;2024-02-16T03:49:53;101296.67;;;11.56;60.65
85764;BME280;76207;39.772;2.706;2024-02-16T03:52:19;101290.46;;;11.55;60.77
85764;BME280;76207;39.772;2.706;2024-02-16T03:54:44;101287.19;;;11.58;60.80
85764;BME280;76207;39.772;2.706;2024-02-16T03:57:14;101288.36;;;11.60;60.94
85764;BME280;76207;39.772;2.706;2024-02-16T03:59:45;101288.10;;;11.59;60.96
85764;BME280;76207;39.772;2.706;2024-02-16T04:02:13;101289.98;;;11.62;61.24
85764;BME280;76207;39.772;2.706;2024-02-16T04:04:39;101289.16;;;11.65;60.96
85764;BME280;76207;39.772;2.706;2024-02-16T04:07:05;101290.84;;;11.68;61.10
85764;BME280;76207;39.772;2.706;2024-02-16T04:09:36;101288.06;;;11.71;60.81
85764;BME280;76207;39.772;2.706;2024-02-16T04:12:02;101289.23;;;11.73;60.83
85764;BME280;76207;39.772;2.706;2024-02-16T04:14:31;101290.52;;;11.75;61.00
85764;BME280;76207;39.772;2.706;2024-02-16T04:16:57;101287.86;;;11.77;61.20
85764;BME280;76207;39.772;2.706;2024-02-16T04:19:26;101289.63;;;11.77;61.04
85764;BME280;76207;39.772;2.706;2024-02-16T04:21:52;101296.02;;;11.78;60.99
85764;BME280;76207;39.772;2.706;2024-02-16T04:24:18;101296.39;;;11.79;61.33
85764;BME280;76207;39.772;2.706;2024-02-16T04:26:44;101295.58;;;11.80;61.46
85764;BME280;76207;39.772;2.706;2024-02-16T04:29:09;101295.28;;;11.80;61.59
85764;BME280;76207;39.772;2.706;2024-02-16T04:31:39;101294.17;;;11.79;61.39
85764;BME280;76207;39.772;2.706;2024-02-16T04:34:05;101296.28;;;11.77;61.18
85764;BME280;76207;39.772;2.706;2024-02-16T04:36:31;101299.74;;;11.77;61.43
85764;BME280;76207;39.772;2.706;2024-02-16T04:38:56;101303.39;;;11.81;61.07
85764;BME280;76207;39.772;2.706;2024-02-16T04:41:22;101299.77;;;11.83;61.35
85764;BME280;76207;39.772;2.706;2024-02-16T04:43:48;101297.55;;;11.84;61.59
85764;BME280;76207;39.772;2.706;2024-02-16T04:46:17;101299.98;;;11.84;61.30
85764;BME280;76207;39.772;2.706;2024-02-16T04:48:42;101307.61;;;11.83;61.53
85764;BME280;76207;39.772;2.706;2024-02-16T04:51:08;101316.49;;;11.80;61.72
85764;BME280;76207;39.772;2.706;2024-02-16T04:53:34;101323.33;;;11.79;61.74
85764;BME280;76207;39.772;2.706;2024-02-16T04:55:59;101320.73;;;11.79;61.67
85764;BME280;76207;39.772;2.706;2024-02-16T04:58:27;101319.48;;;11.78;61.86
85764;BME280;76207;39.772;2.706;2024-02-16T05:00:52;101325.13;;;11.77;61.86
85764;BME280;76207;39.772;2.706;2024-02-16T05:03:18;101324.98;;;11.78;62.17
85764;BME280;76207;39.772;2.706;2024-02-16T05:05:43;101329.25;;;11.72;63.58
85764;BME280;76207;39.772;2.706;2024-02-16T05:08:09;101331.00;;;11.63;62.99
85764;BME280;76207;39.772;2.706;2024-02-16T05:10:34;101325.99;;;11.62;62.78
85764;BME280;76207;39.772;2.706;2024-02-16T05:13:00;101323.16;;;11.67;62.96
85764;BME280;76207;39.772;2.706;2024-02-16T05:15:25;101327.86;;;11.72;63.01
85764;BME280;76207;39.772;2.706;2024-02-16T05:17:51;101324.95;;;11.74;62.62
85764;BME280;76207;39.772;2.706;2024-02-16T05:20:17;101325.60;;;11.80;62.35
85764;BME280;76207;39.772;2.706;2024-02-16T05:22:45;101318.23;;;11.85;62.44
85764;BME280;76207;39.772;2.706;2024-02-16T05:25:12;101318.16;;;11.90;62.51
85764;BME280;76207;39.772;2.706;2024-02-16T05:27:37;101314.39;;;11.93;62.28
85764;BME280;76207;39.772;2.706;2024-02-16T05:30:04;101316.71;;;11.95;62.58
85764;BME280;76207;39.772;2.706;2024-02-16T05:32:34;101315.73;;;11.96;62.66
85764;BME280;76207;39.772;2.706;2024-02-16T05:35:00;101317.48;;;11.97;62.34
85764;BME280;76207;39.772;2.706;2024-02-16T05:37:30;101314.21;;;11.97;62.60
85764;BME280;76207;39.772;2.706;2024-02-16T05:39:58;101312.77;;;11.95;62.43
85764;BME280;76207;39.772;2.706;2024-02-16T05:42:34;101317.11;;;11.96;62.47
85764;BME280;76207;39.772;2.706;2024-02-16T05:44:59;101318.16;;;11.97;62.41
85764;BME280;76207;39.772;2.706;2024-02-16T05:47:25;101314.11;;;11.98;62.52
85764;BME280;76207;39.772;2.706;2024-02-16T05:49:50;101311.15;;;12.00;62.29
85764;BME280;76207;39.772;2.706;2024-02-16T05:52:16;101310.60;;;12.02;62.14
85764;BME280;76207;39.772;2.706;2024-02-16T05:54:45;101309.79;;;12.03;62.39
85764;BME280;76207;39.772;2.706;2024-02-16T05:57:10;101310.79;;;12.03;62.42
85764;BME280;76207;39.772;2.706;2024-02-16T05:59:37;101308.63;;;12.01;62.57
85764;BME280;76207;39.772;2.706;2024-02-16T06:02:04;101308.91;;;12.00;62.59
85764;BME280;76207;39.772;2.706;2024-02-16T06:04:31;101306.13;;;11.99;62.79
85764;BME280;76207;39.772;2.706;2024-02-16T06:06:57;101307.34;;;11.99;62.63
85764;BME280;76207;39.772;2.706;2024-02-16T06:09:22;101302.45;;;12.01;62.92
85764;BME280;76207;39.772;2.706;2024-02-16T06:11:47;101306.70;;;12.03;63.15
85764;BME280;76207;39.772;2.706;2024-02-16T06:14:14;101307.45;;;12.04;63.21
85764;BME280;76207;39.772;2.706;2024-02-16T06:16:40;101307.71;;;12.06;62.97
85764;BME280;76207;39.772;2.706;2024-02-16T06:19:08;101306.61;;;12.08;62.79
85764;BME280;76207;39.772;2.706;2024-02-16T06:21:35;101305.79;;;12.09;62.53
85764;BME280;76207;39.772;2.706;2024-02-16T06:24:01;101307.87;;;12.09;62.92
85764;BME280;76207;39.772;2.706;2024-02-16T06:26:26;101311.42;;;12.08;63.05
85764;BME280;76207;39.772;2.706;2024-02-16T06:28:52;101315.15;;;12.07;63.04
85764;BME280;76207;39.772;2.706;2024-02-16T06:31:17;101317.38;;;12.04;63.25
85764;BME280;76207;39.772;2.706;2024-02-16T06:33:42;101317.66;;;12.03;63.10
85764;BME280;76207;39.772;2.706;2024-02-16T06:36:08;101324.50;;;12.00;63.05
85764;BME280;76207;39.772;2.706;2024-02-16T06:38:36;101329.45;;;11.96;63.06
85764;BME280;76207;39.772;2.706;2024-02-16T06:41:02;101325.39;;;11.94;62.95
85764;BME280;76207;39.772;2.706;2024-02-16T06:43:28;101323.20;;;11.92;63.39
85764;BME280;76207;39.772;2.706;2024-02-16T06:45:54;101329.06;;;11.92;63.42
85764;BME280;76207;39.772;2.706;2024-02-16T06:48:22;101336.11;;;11.93;63.37
85764;BME280;76207;39.772;2.706;2024-02-16T06:50:47;101335.00;;;11.94;63.69
85764;BME280;76207;39.772;2.706;2024-02-16T06:53:13;101339.54;;;11.96;63.93
85764;BME280;76207;39.772;2.706;2024-02-16T06:55:38;101341.16;;;11.91;63.82
85764;BME280;76207;39.772;2.706;2024-02-16T06:58:04;101343.98;;;11.89;63.65
85764;BME280;76207;39.772;2.706;2024-02-16T07:00:29;101346.73;;;11.89;63.59
85764;BME280;76207;39.772;2.706;2024-02-16T07:02:55;101342.11;;;11.86;63.85
85764;BME280;76207;39.772;2.706;2024-02-16T07:05:20;101346.63;;;11.84;63.60
85764;BME280;76207;39.772;2.706;2024-02-16T07:07:46;101354.63;;;11.84;63.73
85764;BME280;76207;39.772;2.706;2024-02-16T07:10:11;101359.96;;;11.81;63.70
85764;BME280;76207;39.772;2.706;2024-02-16T07:12:40;101361.07;;;11.80;63.76
85764;BME280;76207;39.772;2.706;2024-02-16T07:15:06;101356.95;;;11.77;64.16
85764;BME280;76207;39.772;2.706;2024-02-16T07:17:31;101359.72;;;11.77;63.84
85764;BME280;76207;39.772;2.706;2024-02-16T07:19:57;101360.49;;;11.79;63.72
85764;BME280;76207;39.772;2.706;2024-02-16T07:22:22;101364.32;;;11.80;63.90
85764;BME280;76207;39.772;2.706;2024-02-16T07:24:48;101369.46;;;11.79;64.06
85764;BME280;76207;39.772;2.706;2024-02-16T07:27:13;101372.35;;;11.76;64.26
85764;BME280;76207;39.772;2.706;2024-02-16T07:29:39;101376.26;;;11.76;64.25
85764;BME280;76207;39.772;2.706;2024-02-16T07:32:05;101375.49;;;11.77;64.27
85764;BME280;76207;39.772;2.706;2024-02-16T07:34:30;101373.82;;;11.81;64.38
85764;BME280;76207;39.772;2.706;2024-02-16T07:36:56;101374.04;;;11.84;64.25
85764;BME280;76207;39.772;2.706;2024-02-16T07:39:22;101374.48;;;11.86;64.34
85764;BME280;76207;39.772;2.706;2024-02-16T07:41:49;101373.59;;;11.88;64.60
85764;BME280;76207;39.772;2.706;2024-02-16T07:44:14;101378.89;;;11.91;64.76
85764;BME280;76207;39.772;2.706;2024-02-16T07:46:43;101382.79;;;11.96;64.67
85764;BME280;76207;39.772;2.706;2024-02-16T07:49:11;101387.47;;;12.00;64.47
85764;BME280;76207;39.772;2.706;2024-02-16T07:51:37;101389.16;;;12.06;64.48
85764;BME280;76207;39.772;2.706;2024-02-16T07:54:03;101392.52;;;12.14;64.37
85764;BME280;76207;39.772;2.706;2024-02-16T07:56:29;101388.91;;;12.20;64.58
85764;BME280;76207;39.772;2.706;2024-02-16T07:58:56;101390.13;;;12.30;64.29
85764;BME280;76207;39.772;2.706;2024-02-16T08:01:21;101391.35;;;12.36;64.06
85764;BME280;76207;39.772;2.706;2024-02-16T08:03:47;101396.57;;;12.50;64.12
85764;BME280;76207;39.772;2.706;2024-02-16T08:06:13;101397.02;;;12.85;63.92
85764;BME280;76207;39.772;2.706;2024-02-16T08:08:39;101397.73;;;13.24;63.26
85764;BME280;76207;39.772;2.706;2024-02-16T08:11:04;101396.52;;;13.61;62.74
85764;BME280;76207;39.772;2.706;2024-02-16T08:13:30;101400.18;;;14.08;61.54
85764;BME280;76207;39.772;2.706;2024-02-16T08:15:55;101398.79;;;14.74;60.93
85764;BME280;76207;39.772;2.706;2024-02-16T08:18:22;101392.39;;;15.36;59.57
85764;BME280;76207;39.772;2.706;2024-02-16T08:20:47;101393.26;;;16.02;58.46
85764;BME280;76207;39.772;2.706;2024-02-16T08:23:13;101400.91;;;16.26;57.54
85764;BME280;76207;39.772;2.706;2024-02-16T08:25:38;101402.10;;;16.25;56.98
85764;BME280;76207;39.772;2.706;2024-02-16T08:28:04;101406.74;;;15.99;56.80
85764;BME280;76207;39.772;2.706;2024-02-16T08:30:30;101407.89;;;15.76;56.82
85764;BME280;76207;39.772;2.706;2024-02-16T08:32:55;101417.78;;;15.57;57.12
85764;BME280;76207;39.772;2.706;2024-02-16T08:35:23;101419.54;;;15.41;57.52
85764;BME280;76207;39.772;2.706;2024-02-16T08:37:49;101422.47;;;15.26;57.48
85764;BME280;76207;39.772;2.706;2024-02-16T08:40:14;101427.72;;;15.12;58.04
85764;BME280;76207;39.772;2.706;2024-02-16T08:42:41;101426.20;;;14.93;58.88
85764;BME280;76207;39.772;2.706;2024-02-16T08:45:08;101429.91;;;14.72;58.83
85764;BME280;76207;39.772;2.706;2024-02-16T08:47:34;101429.31;;;14.63;58.98
85764;BME280;76207;39.772;2.706;2024-02-16T08:49:59;101430.84;;;14.59;59.16
85764;BME280;76207;39.772;2.706;2024-02-16T08:52:26;101432.95;;;14.56;59.97
85764;BME280;76207;39.772;2.706;2024-02-16T08:54:51;101433.75;;;14.59;59.67
85764;BME280;76207;39.772;2.706;2024-02-16T08:57:17;101431.16;;;14.58;59.94
85764;BME280;76207;39.772;2.706;2024-02-16T08:59:42;101430.73;;;14.56;59.72
85764;BME280;76207;39.772;2.706;2024-02-16T09:02:09;101431.20;;;14.52;60.19
85764;BME280;76207;39.772;2.706;2024-02-16T09:04:35;101434.25;;;14.51;60.21
85764;BME280;76207;39.772;2.706;2024-02-16T09:07:02;101435.71;;;14.56;60.41
85764;BME280;76207;39.772;2.706;2024-02-16T09:09:27;101436.98;;;14.61;61.01
85764;BME280;76207;39.772;2.706;2024-02-16T09:11:53;101437.73;;;14.67;61.54
85764;BME280;76207;39.772;2.706;2024-02-16T09:14:19;101436.64;;;14.80;60.91
85764;BME280;76207;39.772;2.706;2024-02-16T09:16:48;101439.48;;;14.94;61.19
85764;BME280;76207;39.772;2.706;2024-02-16T09:19:16;101440.75;;;15.06;61.23
85764;BME280;76207;39.772;2.706;2024-02-16T09:21:42;101444.71;;;15.22;61.58
85764;BME280;76207;39.772;2.706;2024-02-16T09:24:07;101446.58;;;15.37;61.51
85764;BME280;76207;39.772;2.706;2024-02-16T09:26:36;101444.70;;;15.54;61.25
85764;BME280;76207;39.772;2.706;2024-02-16T09:29:02;101442.30;;;15.70;61.14
85764;BME280;76207;39.772;2.706;2024-02-16T09:31:29;101440.98;;;15.88;60.86
85764;BME280;76207;39.772;2.706;2024-02-16T09:33:54;101444.04;;;16.03;61.07
85764;BME280;76207;39.772;2.706;2024-02-16T09:36:20;101447.29;;;16.20;61.41
85764;BME280;76207;39.772;2.706;2024-02-16T09:38:46;101441.38;;;16.40;61.17
85764;BME280;76207;39.772;2.706;2024-02-16T09:41:13;101442.08;;;16.72;60.85
85764;BME280;76207;39.772;2.706;2024-02-16T09:43:38;101441.40;;;16.99;60.68
85764;BME280;76207;39.772;2.706;2024-02-16T09:46:05;101438.52;;;17.35;60.24
85764;BME280;76207;39.772;2.706;2024-02-16T09:48:31;101438.32;;;17.74;59.49
85764;BME280;76207;39.772;2.706;2024-02-16T09:50:57;101437.79;;;17.94;58.54
85764;BME280;76207;39.772;2.706;2024-02-16T09:53:28;101441.13;;;18.06;58.06
85764;BME280;76207;39.772;2.706;2024-02-16T09:55:54;101443.70;;;18.27;57.90
85764;BME280;76207;39.772;2.706;2024-02-16T09:58:20;101442.83;;;18.55;57.49
85764;BME280;76207;39.772;2.706;2024-02-16T10:03:22;101441.07;;;18.94;56.36
85764;BME280;76207;39.772;2.706;2024-02-16T10:05:48;101438.42;;;19.11;55.83
85764;BME280;76207;39.772;2.706;2024-02-16T10:08:14;101435.33;;;19.31;55.42
85764;BME280;76207;39.772;2.706;2024-02-16T10:10:39;101438.02;;;19.47;55.17
85764;BME280;76207;39.772;2.706;2024-02-16T10:13:06;101435.66;;;19.56;54.69
85764;BME280;76207;39.772;2.706;2024-02-16T10:15:32;101436.98;;;19.60;54.35
85764;BME280;76207;39.772;2.706;2024-02-16T10:18:06;101437.80;;;19.52;54.27
85764;BME280;76207;39.772;2.706;2024-02-16T10:20:33;101440.17;;;19.37;54.86
85764;BME280;76207;39.772;2.706;2024-02-16T10:25:28;101449.77;;;19.07;55.62
85764;BME280;76207;39.772;2.706;2024-02-16T10:27:54;101455.66;;;18.95;55.91
85764;BME280;76207;39.772;2.706;2024-02-16T10:30:26;101454.71;;;18.87;56.41
85764;BME280;76207;39.772;2.706;2024-02-16T10:32:54;101458.37;;;18.75;56.53
85764;BME280;76207;39.772;2.706;2024-02-16T10:35:21;101455.96;;;18.59;56.64
85764;BME280;76207;39.772;2.706;2024-02-16T10:37:50;101464.06;;;18.47;56.93
85764;BME280;76207;39.772;2.706;2024-02-16T10:40:18;101467.40;;;18.37;56.99
85764;BME280;76207;39.772;2.706;2024-02-16T10:42:50;101466.09;;;18.29;57.07
85764;BME280;76207;39.772;2.706;2024-02-16T10:45:17;101471.14;;;18.24;57.26
85764;BME280;76207;39.772;2.706;2024-02-16T10:47:44;101470.47;;;18.19;57.45
85764;BME280;76207;39.772;2.706;2024-02-16T10:50:10;101477.11;;;18.16;57.90
85764;BME280;76207;39.772;2.706;2024-02-16T10:52:39;101478.05;;;18.13;57.86
85764;BME280;76207;39.772;2.706;2024-02-16T10:55:06;101483.09;;;18.08;57.86
85764;BME280;76207;39.772;2.706;2024-02-16T10:57:35;101484.23;;;18.06;57.89
85764;BME280;76207;39.772;2.706;2024-02-16T11:00:08;101485.08;;;17.99;58.25
85764;BME280;76207;39.772;2.706;2024-02-16T11:02:54;101491.84;;;17.95;58.89
85764;BME280;76207;39.772;2.706;2024-02-16T11:05:41;101494.80;;;17.90;59.07
85764;BME280;76207;39.772;2.706;2024-02-16T11:08:14;101497.15;;;17.88;59.36
85764;BME280;76207;39.772;2.706;2024-02-16T11:10:40;101498.77;;;17.90;59.57
85764;BME280;76207;39.772;2.706;2024-02-16T11:13:06;101499.17;;;17.92;59.70
85764;BME280;76207;39.772;2.706;2024-02-16T11:15:33;101502.63;;;17.97;59.62
85764;BME280;76207;39.772;2.706;2024-02-16T11:18:03;101503.77;;;17.99;59.63
85764;BME280;76207;39.772;2.706;2024-02-16T11:20:36;101505.47;;;18.04;59.54
85764;BME280;76207;39.772;2.706;2024-02-16T11:23:06;101507.66;;;18.07;59.67
85764;BME280;76207;39.772;2.706;2024-02-16T11:25:33;101506.15;;;18.09;59.65
85764;BME280;76207;39.772;2.706;2024-02-16T11:27:59;101511.75;;;18.05;59.64
85764;BME280;76207;39.772;2.706;2024-02-16T11:30:25;101511.71;;;17.99;59.81
85764;BME280;76207;39.772;2.706;2024-02-16T11:32:51;101510.84;;;17.98;60.01
85764;BME280;76207;39.772;2.706;2024-02-16T11:35:17;101507.85;;;17.97;60.15
85764;BME280;76207;39.772;2.706;2024-02-16T11:37:43;101505.15;;;17.94;60.90
85764;BME280;76207;39.772;2.706;2024-02-16T11:40:13;101509.77;;;17.93;61.57
85764;BME280;76207;39.772;2.706;2024-02-16T11:42:39;101507.17;;;17.93;62.13
85764;BME280;76207;39.772;2.706;2024-02-16T11:45:05;101506.13;;;17.93;62.30
85764;BME280;76207;39.772;2.706;2024-02-16T11:47:31;101503.48;;;17.92;62.19
85764;BME280;76207;39.772;2.706;2024-02-16T11:50:09;101497.73;;;17.90;62.29
85764;BME280;76207;39.772;2.706;2024-02-16T11:52:40;101502.58;;;17.90;62.59
85764;BME280;76207;39.772;2.706;2024-02-16T11:55:10;101501.64;;;17.88;62.70
85764;BME280;76207;39.772;2.706;2024-02-16T11:57:39;101498.00;;;17.88;62.58
85764;BME280;76207;39.772;2.706;2024-02-16T12:00:06;101499.44;;;17.84;62.86
85764;BME280;76207;39.772;2.706;2024-02-16T12:02:40;101498.45;;;17.81;62.85
85764;BME280;76207;39.772;2.706;2024-02-16T12:05:06;101497.05;;;17.80;62.88
85764;BME280;76207;39.772;2.706;2024-02-16T12:07:32;101498.23;;;17.79;62.80
85764;BME280;76207;39.772;2.706;2024-02-16T12:10:00;101498.81;;;17.76;62.63
85764;BME280;76207;39.772;2.706;2024-02-16T12:12:27;101498.77;;;17.75;62.65
85764;BME280;76207;39.772;2.706;2024-02-16T12:14:56;101495.17;;;17.72;62.65
85764;BME280;76207;39.772;2.706;2024-02-16T12:17:22;101495.79;;;17.70;62.90
85764;BME280;76207;39.772;2.706;2024-02-16T12:19:50;101490.17;;;17.68;62.76
85764;BME280;76207;39.772;2.706;2024-02-16T12:22:19;101485.59;;;17.65;62.71
85764;BME280;76207;39.772;2.706;2024-02-16T12:24:49;101486.94;;;17.59;62.97
85764;BME280;76207;39.772;2.706;2024-02-16T12:27:15;101487.35;;;17.56;62.89
85764;BME280;76207;39.772;2.706;2024-02-16T12:29:41;101485.20;;;17.54;63.03
85764;BME280;76207;39.772;2.706;2024-02-16T12:32:07;101487.84;;;17.50;63.23
85764;BME280;76207;39.772;2.706;2024-02-16T12:34:35;101489.45;;;17.42;63.64
85764;BME280;76207;39.772;2.706;2024-02-16T12:37:06;101484.88;;;17.35;63.81
85764;BME280;76207;39.772;2.706;2024-02-16T12:39:34;101486.23;;;17.30;64.24
85764;BME280;76207;39.772;2.706;2024-02-16T12:42:00;101487.11;;;17.25;64.37
85764;BME280;76207;39.772;2.706;2024-02-16T12:44:26;101492.30;;;17.21;64.55
85764;BME280;76207;39.772;2.706;2024-02-16T12:46:51;101485.74;;;17.16;64.71
85764;BME280;76207;39.772;2.706;2024-02-16T12:49:16;101485.96;;;17.08;64.81
85764;BME280;76207;39.772;2.706;2024-02-16T12:51:42;101485.23;;;16.97;64.61